createdAt,value
2018-09-08T00:01:35.896Z,99.90
2018-09-08T00:04:04.067Z,99.90
2018-09-08T00:06:33.104Z,99.90
2018-09-08T00:09:01.559Z,99.90
2018-09-08T00:11:29.733Z,99.90
2018-09-08T00:13:58.002Z,99.90
2018-09-08T00:16:31.662Z,99.90
2018-09-08T00:19:05.189Z,99.90
2018-09-08T00:21:38.764Z,99.90
2018-09-08T00:24:12.257Z,99.90
2018-09-08T00:26:39.691Z,99.90
2018-09-08T00:29:15.986Z,99.90
2018-09-08T00:31:44.189Z,99.90
2018-09-08T00:34:12.368Z,99.90
2018-09-08T00:36:40.659Z,99.90
2018-09-08T00:39:09.475Z,99.90
2018-09-08T00:41:37.802Z,99.90
2018-09-08T00:44:06.068Z,99.90
2018-09-08T00:46:34.240Z,99.90
2018-09-08T00:49:02.416Z,99.90
2018-09-08T00:51:30.660Z,99.90
2018-09-08T00:53:59.127Z,99.90
2018-09-08T00:56:27.328Z,99.90
2018-09-08T00:59:00.819Z,99.90
2018-09-08T01:01:28.972Z,99.90
2018-09-08T01:03:57.134Z,99.90
2018-09-08T01:06:25.285Z,99.90
2018-09-08T01:08:53.448Z,99.90
2018-09-08T01:11:21.714Z,99.90
2018-09-08T01:13:49.983Z,99.90
2018-09-08T01:16:18.940Z,99.90
2018-09-08T01:18:47.159Z,99.90
2018-09-08T01:21:15.329Z,99.90
2018-09-08T01:23:46.955Z,99.90
2018-09-08T01:26:15.636Z,99.90
2018-09-08T01:28:43.800Z,99.90
2018-09-08T01:31:12.015Z,99.90
2018-09-08T01:33:40.287Z,99.90
2018-09-08T01:36:08.465Z,99.90
2018-09-08T01:38:36.698Z,99.90
2018-09-08T01:41:04.815Z,99.90
2018-09-08T01:43:32.948Z,99.90
2018-09-08T01:46:01.168Z,99.90
2018-09-08T01:48:29.477Z,99.90
2018-09-08T01:50:57.671Z,99.90
2018-09-08T01:53:25.816Z,99.90
2018-09-08T01:55:54.015Z,99.90
2018-09-08T01:58:22.430Z,99.90
2018-09-08T02:00:50.590Z,99.90
2018-09-08T02:03:18.795Z,99.90
2018-09-08T02:05:46.938Z,99.90
2018-09-08T02:08:15.201Z,99.90
2018-09-08T02:10:43.430Z,99.90
2018-09-08T02:13:12.018Z,99.90
2018-09-08T02:15:40.233Z,99.90
2018-09-08T02:18:08.468Z,99.90
2018-09-08T02:20:36.682Z,99.90
2018-09-08T02:23:04.869Z,99.90
2018-09-08T02:25:33.389Z,99.90
2018-09-08T02:28:01.530Z,99.90
2018-09-08T02:30:29.736Z,99.90
2018-09-08T02:32:57.932Z,99.90
2018-09-08T02:35:26.313Z,99.90
2018-09-08T02:37:54.492Z,99.90
2018-09-08T02:40:22.696Z,99.90
2018-09-08T02:42:50.873Z,99.90
2018-09-08T02:45:19.060Z,99.90
2018-09-08T02:47:47.215Z,99.90
2018-09-08T02:50:36.941Z,99.90
2018-09-08T02:53:04.824Z,99.90
2018-09-08T02:55:32.752Z,99.90
2018-09-08T02:58:00.187Z,99.90
2018-09-08T03:00:27.922Z,99.90
2018-09-08T03:02:55.148Z,99.90
2018-09-08T03:05:22.603Z,99.90
2018-09-08T03:07:49.957Z,99.90
2018-09-08T03:10:17.604Z,99.90
2018-09-08T03:12:44.800Z,99.90
2018-09-08T03:15:11.975Z,99.90
2018-09-08T03:17:39.203Z,99.90
2018-09-08T03:20:06.410Z,99.90
2018-09-08T03:22:33.646Z,99.90
2018-09-08T03:25:00.861Z,99.90
2018-09-08T03:27:28.111Z,99.90
2018-09-08T03:29:55.313Z,99.90
2018-09-08T03:32:22.540Z,99.90
2018-09-08T03:34:49.763Z,99.90
2018-09-08T03:37:16.938Z,99.90
2018-09-08T03:39:44.200Z,99.90
2018-09-08T03:42:11.424Z,99.90
2018-09-08T03:44:38.616Z,99.90
2018-09-08T03:47:05.819Z,99.90
2018-09-08T03:49:33.017Z,99.90
2018-09-08T03:52:00.230Z,99.90
2018-09-08T03:54:27.424Z,99.90
2018-09-08T03:56:54.619Z,99.90
2018-09-08T03:59:21.827Z,99.90
2018-09-08T04:01:49.061Z,99.90
2018-09-08T04:04:17.242Z,99.90
2018-09-08T04:06:45.420Z,99.90
2018-09-08T04:09:13.568Z,99.90
2018-09-08T04:11:41.775Z,99.90
2018-09-08T04:14:10.060Z,99.90
2018-09-08T04:16:38.293Z,99.90
2018-09-08T04:19:06.821Z,99.90
2018-09-08T04:21:35.032Z,99.90
2018-09-08T04:24:03.312Z,99.90
2018-09-08T04:26:31.702Z,99.90
2018-09-08T04:28:59.903Z,99.90
2018-09-08T04:31:28.082Z,99.90
2018-09-08T04:33:56.322Z,99.90
2018-09-08T04:36:24.436Z,99.90
2018-09-08T04:38:52.605Z,99.90
2018-09-08T04:41:20.876Z,99.90
2018-09-08T04:43:49.027Z,99.90
2018-09-08T04:46:17.145Z,99.90
2018-09-08T04:48:45.280Z,99.90
2018-09-08T04:51:13.524Z,99.90
2018-09-08T04:53:41.664Z,99.90
2018-09-08T04:56:09.836Z,99.90
2018-09-08T04:58:38.012Z,99.90
2018-09-08T05:01:06.473Z,99.90
2018-09-08T05:03:34.647Z,99.90
2018-09-08T05:06:02.869Z,99.90
2018-09-08T05:08:31.016Z,99.90
2018-09-08T05:10:59.179Z,99.90
2018-09-08T05:13:27.334Z,99.90
2018-09-08T05:15:55.518Z,99.90
2018-09-08T05:18:23.830Z,99.90
2018-09-08T05:20:52.022Z,99.90
2018-09-08T05:23:20.211Z,99.90
2018-09-08T05:25:48.369Z,99.90
2018-09-08T05:28:16.508Z,99.90
2018-09-08T05:30:44.699Z,99.90
2018-09-08T05:33:12.930Z,99.90
2018-09-08T05:35:41.174Z,99.90
2018-09-08T05:38:09.363Z,99.90
2018-09-08T05:40:37.710Z,99.90
2018-09-08T05:43:05.992Z,99.90
2018-09-08T05:45:34.103Z,99.90
2018-09-08T05:48:02.512Z,99.90
2018-09-08T05:50:31.912Z,99.90
2018-09-08T05:53:00.122Z,99.90
2018-09-08T05:55:28.260Z,99.90
2018-09-08T05:57:56.456Z,99.90
2018-09-08T06:00:24.726Z,99.90
2018-09-08T06:02:53.161Z,99.90
2018-09-08T06:05:21.364Z,99.90
2018-09-08T06:07:49.902Z,99.90
2018-09-08T06:10:18.121Z,99.90
2018-09-08T06:12:46.299Z,99.90
2018-09-08T06:15:14.440Z,99.90
2018-09-08T06:17:43.839Z,99.90
2018-09-08T06:20:12.095Z,99.90
2018-09-08T06:22:40.396Z,99.90
2018-09-08T06:25:08.776Z,99.90
2018-09-08T06:27:37.834Z,99.90
2018-09-08T06:30:05.970Z,99.90
2018-09-08T06:32:34.112Z,99.90
2018-09-08T06:35:02.418Z,99.90
2018-09-08T06:37:30.592Z,99.90
2018-09-08T06:39:58.736Z,99.90
2018-09-08T06:42:26.936Z,99.90
2018-09-08T06:44:55.132Z,99.90
2018-09-08T06:47:23.338Z,99.90
2018-09-08T06:49:51.448Z,99.90
2018-09-08T06:52:19.754Z,99.90
2018-09-08T06:54:47.888Z,99.90
2018-09-08T06:57:16.112Z,99.90
2018-09-08T06:59:44.352Z,99.90
2018-09-08T07:02:12.507Z,99.90
2018-09-08T07:04:40.723Z,99.90
2018-09-08T07:07:12.246Z,99.90
2018-09-08T07:09:41.084Z,99.90
2018-09-08T07:12:09.543Z,99.90
2018-09-08T07:14:37.688Z,99.90
2018-09-08T07:17:06.076Z,99.90
2018-09-08T07:19:34.296Z,99.90
2018-09-08T07:22:02.454Z,99.90
2018-09-08T07:24:30.688Z,99.90
2018-09-08T07:26:58.998Z,99.90
2018-09-08T07:29:27.190Z,99.90
2018-09-08T07:32:05.178Z,99.90
2018-09-08T07:34:33.756Z,99.90
2018-09-08T07:37:02.125Z,99.90
2018-09-08T07:39:31.290Z,99.90
2018-09-08T07:41:59.879Z,99.90
2018-09-08T07:44:28.214Z,99.90
2018-09-08T07:46:56.586Z,99.90
2018-09-08T07:49:25.065Z,99.90
2018-09-08T07:51:53.465Z,99.90
2018-09-08T07:54:21.680Z,99.90
2018-09-08T07:56:52.659Z,99.90
2018-09-08T07:59:33.019Z,99.90
2018-09-08T08:02:01.559Z,99.90
2018-09-08T08:04:30.035Z,99.90
2018-09-08T08:06:58.294Z,99.90
2018-09-08T08:09:26.846Z,99.90
2018-09-08T08:11:55.200Z,99.90
2018-09-08T08:14:23.787Z,99.90
2018-09-08T08:16:52.994Z,99.90
2018-09-08T08:19:22.184Z,99.90
2018-09-08T08:21:51.151Z,99.90
2018-09-08T08:24:20.300Z,99.90
2018-09-08T08:26:49.564Z,99.90
2018-09-08T08:29:17.848Z,99.90
2018-09-08T08:31:46.288Z,99.90
2018-09-08T08:34:14.690Z,99.90
2018-09-08T08:36:43.339Z,99.90
2018-09-08T08:39:11.790Z,99.90
2018-09-08T08:41:40.410Z,99.90
2018-09-08T08:44:08.582Z,99.90
2018-09-08T08:46:36.809Z,99.90
2018-09-08T08:49:05.025Z,99.90
2018-09-08T08:51:44.559Z,99.90
2018-09-08T08:54:18.273Z,99.90
2018-09-08T08:56:47.253Z,99.90
2018-09-08T08:59:15.728Z,99.90
2018-09-08T09:01:45.137Z,99.90
2018-09-08T09:04:13.332Z,99.90
2018-09-08T09:06:41.688Z,99.90
2018-09-08T09:09:13.335Z,99.90
2018-09-08T09:11:41.617Z,99.90
2018-09-08T09:14:10.334Z,99.90
2018-09-08T09:16:38.565Z,99.90
2018-09-08T09:19:32.752Z,99.90
2018-09-08T09:22:12.473Z,99.90
2018-09-08T09:24:49.760Z,99.90
2018-09-08T09:27:17.485Z,99.90
2018-09-08T09:29:45.697Z,99.90
2018-09-08T09:32:13.943Z,99.90
2018-09-08T09:34:42.221Z,99.90
2018-09-08T09:37:10.638Z,99.90
2018-09-08T09:39:39.056Z,99.90
2018-09-08T09:42:08.340Z,99.90
2018-09-08T09:44:36.608Z,99.90
2018-09-08T09:47:04.825Z,99.90
2018-09-08T09:49:33.092Z,99.90
2018-09-08T09:52:01.308Z,99.90
2018-09-08T09:54:30.615Z,99.90
2018-09-08T09:56:58.948Z,99.90
2018-09-08T09:59:27.221Z,99.90
2018-09-08T10:02:00.726Z,99.90
2018-09-08T10:04:29.058Z,99.90
2018-09-08T10:06:57.499Z,99.90
2018-09-08T10:09:26.646Z,99.90
2018-09-08T10:11:54.997Z,99.90
2018-09-08T10:14:23.165Z,99.90
2018-09-08T10:16:51.652Z,99.90
2018-09-08T10:19:19.949Z,99.90
2018-09-08T10:21:48.150Z,99.90
2018-09-08T10:24:16.338Z,99.90
2018-09-08T10:26:44.576Z,99.90
2018-09-08T10:29:12.785Z,99.90
2018-09-08T10:31:40.985Z,99.90
2018-09-08T10:34:09.179Z,99.90
2018-09-08T10:36:37.741Z,99.90
2018-09-08T10:39:06.617Z,99.90
2018-09-08T10:41:34.859Z,99.90
2018-09-08T10:44:03.038Z,99.90
2018-09-08T10:46:31.229Z,99.90
2018-09-08T10:48:59.377Z,99.90
2018-09-08T10:51:46.420Z,99.90
2018-09-08T10:54:14.921Z,99.90
2018-09-08T10:56:43.909Z,99.90
2018-09-08T10:59:12.327Z,99.90
2018-09-08T11:01:40.847Z,99.90
2018-09-08T11:04:08.914Z,99.90
2018-09-08T11:06:37.078Z,99.90
2018-09-08T11:09:06.152Z,99.90
2018-09-08T11:11:34.907Z,99.90
2018-09-08T11:14:03.104Z,99.90
2018-09-08T11:16:31.351Z,99.90
2018-09-08T11:18:59.749Z,99.90
2018-09-08T11:21:27.983Z,99.90
2018-09-08T11:23:56.194Z,99.90
2018-09-08T11:26:24.340Z,99.90
2018-09-08T11:28:52.696Z,99.90
2018-09-08T11:31:20.855Z,99.90
2018-09-08T11:33:49.031Z,99.20
2018-09-08T11:36:17.217Z,99.10
2018-09-08T11:38:45.375Z,99.00
2018-09-08T11:41:13.570Z,99.40
2018-09-08T11:43:41.701Z,98.90
2018-09-08T11:46:09.853Z,99.90
2018-09-08T11:48:38.081Z,99.20
2018-09-08T11:51:06.256Z,99.00
2018-09-08T11:53:34.472Z,98.50
2018-09-08T11:56:02.791Z,97.90
2018-09-08T11:58:30.983Z,98.10
2018-09-08T12:00:59.169Z,98.00
2018-09-08T12:03:27.320Z,97.90
2018-09-08T12:05:55.532Z,98.20
2018-09-08T12:08:24.396Z,98.30
2018-09-08T12:10:52.529Z,98.20
2018-09-08T12:13:20.697Z,98.20
2018-09-08T12:15:48.855Z,97.70
2018-09-08T12:18:18.300Z,97.20
2018-09-08T12:20:46.469Z,97.10
2018-09-08T12:23:14.722Z,97.80
2018-09-08T12:25:42.896Z,97.70
2018-09-08T12:28:11.073Z,97.50
2018-09-08T12:30:39.682Z,97.20
2018-09-08T12:33:07.908Z,97.60
2018-09-08T12:35:36.060Z,96.80
2018-09-08T12:38:04.311Z,96.50
2018-09-08T12:40:32.513Z,96.40
2018-09-08T12:43:00.683Z,96.90
2018-09-08T12:45:28.815Z,96.50
2018-09-08T12:47:57.038Z,96.50
2018-09-08T12:50:25.180Z,96.50
2018-09-08T12:52:53.393Z,96.50
2018-09-08T12:55:21.566Z,97.20
2018-09-08T12:57:49.816Z,96.70
2018-09-08T13:00:18.037Z,95.50
2018-09-08T13:02:46.233Z,95.90
2018-09-08T13:05:14.417Z,95.70
2018-09-08T13:07:42.664Z,95.10
2018-09-08T13:10:10.841Z,94.40
2018-09-08T13:12:39.798Z,94.10
2018-09-08T13:15:08.411Z,94.90
2018-09-08T13:17:36.629Z,94.40
2018-09-08T13:20:04.831Z,93.70
2018-09-08T13:22:33.009Z,94.10
2018-09-08T13:25:01.566Z,95.20
2018-09-08T13:27:29.801Z,94.80
2018-09-08T13:29:58.151Z,94.20
2018-09-08T13:32:26.344Z,94.10
2018-09-08T13:34:54.878Z,94.70
2018-09-08T13:37:23.049Z,94.50
2018-09-08T13:39:51.494Z,93.20
2018-09-08T13:42:19.716Z,93.90
2018-09-08T13:44:48.541Z,93.90
2018-09-08T13:47:16.790Z,93.70
2018-09-08T13:49:45.000Z,94.60
2018-09-08T13:52:13.198Z,94.80
2018-09-08T13:54:41.356Z,94.10
2018-09-08T13:57:09.688Z,94.00
2018-09-08T13:59:37.885Z,94.40
2018-09-08T14:02:06.116Z,94.40
2018-09-08T14:04:34.830Z,94.20
2018-09-08T14:07:03.072Z,94.80
2018-09-08T14:09:31.334Z,95.10
2018-09-08T14:11:59.585Z,94.80
2018-09-08T14:14:27.791Z,94.20
2018-09-08T14:16:56.201Z,94.60
2018-09-08T14:19:24.365Z,94.40
2018-09-08T14:21:52.509Z,92.70
2018-09-08T14:24:20.679Z,93.70
2018-09-08T14:26:49.053Z,93.90
2018-09-08T14:29:17.221Z,94.20
2018-09-08T14:31:45.378Z,93.80
2018-09-08T14:34:14.194Z,94.20
2018-09-08T14:36:42.450Z,93.90
2018-09-08T14:39:11.036Z,93.20
2018-09-08T14:41:39.700Z,93.70
2018-09-08T14:44:07.961Z,94.10
2018-09-08T14:46:36.216Z,94.00
2018-09-08T14:49:04.437Z,94.20
2018-09-08T14:51:32.551Z,93.60
2018-09-08T14:54:00.830Z,93.80
2018-09-08T14:56:29.276Z,93.90
2018-09-08T14:58:57.452Z,93.50
2018-09-08T15:01:25.883Z,93.50
2018-09-08T15:03:54.075Z,93.40
2018-09-08T15:06:22.353Z,93.70
2018-09-08T15:08:50.493Z,94.00
2018-09-08T15:11:18.961Z,93.10
2018-09-08T15:13:47.125Z,93.90
2018-09-08T15:16:15.465Z,93.40
2018-09-08T15:18:43.788Z,93.50
2018-09-08T15:21:12.220Z,92.90
2018-09-08T15:23:40.425Z,92.90
2018-09-08T15:26:08.743Z,93.20
2018-09-08T15:28:36.942Z,93.80
2018-09-08T15:31:05.120Z,93.50
2018-09-08T15:33:33.252Z,93.70
2018-09-08T15:36:01.449Z,93.80
2018-09-08T15:38:29.884Z,94.00
2018-09-08T15:40:58.772Z,93.60
2018-09-08T15:43:27.068Z,93.80
2018-09-08T15:45:55.456Z,93.10
2018-09-08T15:48:25.624Z,93.50
2018-09-08T15:50:54.053Z,93.50
2018-09-08T15:53:22.255Z,93.10
2018-09-08T15:55:51.182Z,93.30
2018-09-08T15:58:19.420Z,93.70
2018-09-08T16:00:47.556Z,93.20
2018-09-08T16:03:16.383Z,93.20
2018-09-08T16:05:44.813Z,93.10
2018-09-08T16:08:13.033Z,93.30
2018-09-08T16:10:41.669Z,93.30
2018-09-08T16:13:09.881Z,93.60
2018-09-08T16:15:38.336Z,93.20
2018-09-08T16:18:06.821Z,93.30
2018-09-08T16:20:35.191Z,93.50
2018-09-08T16:23:03.440Z,93.60
2018-09-08T16:25:32.473Z,93.70
2018-09-08T16:28:01.111Z,93.80
2018-09-08T16:30:29.280Z,93.90
2018-09-08T16:32:57.533Z,94.00
2018-09-08T16:35:25.884Z,93.70
2018-09-08T16:37:54.192Z,93.90
2018-09-08T16:40:22.339Z,94.00
2018-09-08T16:42:50.515Z,93.80
2018-09-08T16:45:18.670Z,93.80
2018-09-08T16:47:46.837Z,94.00
2018-09-08T16:50:15.128Z,94.00
2018-09-08T16:52:43.285Z,94.10
2018-09-08T16:55:11.676Z,95.10
2018-09-08T16:57:40.039Z,94.30
2018-09-08T17:00:08.450Z,94.40
2018-09-08T17:02:36.944Z,94.70
2018-09-08T17:05:05.312Z,94.10
2018-09-08T17:07:33.461Z,94.20
2018-09-08T17:10:01.654Z,94.30
2018-09-08T17:12:29.919Z,94.30
2018-09-08T17:14:58.506Z,94.50
2018-09-08T17:17:26.738Z,94.50
2018-09-08T17:19:55.904Z,95.10
2018-09-08T17:22:24.754Z,95.40
2018-09-08T17:24:52.942Z,94.70
2018-09-08T17:27:21.124Z,95.20
2018-09-08T17:29:50.025Z,94.90
2018-09-08T17:32:18.301Z,95.10
2018-09-08T17:34:46.614Z,95.50
2018-09-08T17:37:16.106Z,95.00
2018-09-08T17:39:47.009Z,94.80
2018-09-08T17:42:16.672Z,94.50
2018-09-08T17:44:45.388Z,94.90
2018-09-08T17:47:16.059Z,95.40
2018-09-08T17:49:46.203Z,94.40
2018-09-08T17:52:20.642Z,94.70
2018-09-08T17:54:49.278Z,95.40
2018-09-08T17:57:22.063Z,95.10
2018-09-08T17:59:50.668Z,95.20
2018-09-08T18:02:37.512Z,95.00
2018-09-08T18:08:09.565Z,95.50
2018-09-08T18:17:35.854Z,95.50
2018-09-08T18:25:23.617Z,96.00
2018-09-08T18:27:52.156Z,95.70
2018-09-08T18:30:21.717Z,96.00
2018-09-08T18:32:50.257Z,96.20
2018-09-08T18:35:18.871Z,96.20
2018-09-08T18:37:47.207Z,96.20
2018-09-08T18:40:22.852Z,96.20
2018-09-08T18:42:51.220Z,96.60
2018-09-08T18:45:21.257Z,96.20
2018-09-08T18:47:50.412Z,96.20
2018-09-08T18:50:18.611Z,97.00
2018-09-08T18:52:46.821Z,97.00
2018-09-08T18:55:15.040Z,96.90
2018-09-08T18:57:43.440Z,97.20
2018-09-08T19:00:11.754Z,97.20
2018-09-08T19:02:40.158Z,97.00
2018-09-08T19:05:08.475Z,97.10
2018-09-08T19:07:36.692Z,97.60
2018-09-08T19:10:06.253Z,98.00
2018-09-08T19:12:35.611Z,98.00
2018-09-08T19:15:09.490Z,98.10
2018-09-08T19:17:37.768Z,98.10
2018-09-08T19:20:11.471Z,98.10
2018-09-08T19:22:39.665Z,97.70
2018-09-08T19:25:07.928Z,97.90
2018-09-08T19:27:36.135Z,97.80
2018-09-08T19:30:04.671Z,98.20
2018-09-08T19:32:32.895Z,98.30
2018-09-08T19:35:06.511Z,98.30
2018-09-08T19:37:36.065Z,98.10
2018-09-08T19:40:08.635Z,98.40
2018-09-08T19:42:36.942Z,98.40
2018-09-08T19:45:06.786Z,99.10
2018-09-08T19:47:40.638Z,99.00
2018-09-08T19:50:08.873Z,99.20
2018-09-08T19:52:42.380Z,99.10
2018-09-08T19:55:10.750Z,99.10
2018-09-08T19:57:44.365Z,99.30
2018-09-08T20:00:12.616Z,99.40
2018-09-08T20:02:40.901Z,99.10
2018-09-08T20:05:09.089Z,99.30
2018-09-08T20:07:37.397Z,99.40
2018-09-08T20:10:06.948Z,99.40
2018-09-08T20:12:35.223Z,99.40
2018-09-08T20:15:03.399Z,99.40
2018-09-08T20:17:31.564Z,99.70
2018-09-08T20:19:59.772Z,99.60
2018-09-08T20:22:28.124Z,99.70
2018-09-08T20:24:56.615Z,99.60
2018-09-08T20:27:24.918Z,99.60
2018-09-08T20:29:53.270Z,99.40
2018-09-08T20:32:21.551Z,99.80
2018-09-08T20:34:49.756Z,99.90
2018-09-08T20:37:18.180Z,99.90
2018-09-08T20:39:46.361Z,99.90
2018-09-08T20:42:14.581Z,99.90
2018-09-08T20:44:42.899Z,99.70
2018-09-08T20:47:11.208Z,99.90
2018-09-08T20:49:39.521Z,99.90
2018-09-08T20:52:07.856Z,99.90
2018-09-08T20:54:36.218Z,99.90
2018-09-08T20:57:04.411Z,99.90
2018-09-08T20:59:32.787Z,99.90
2018-09-08T21:02:01.017Z,99.90
2018-09-08T21:04:29.276Z,99.90
2018-09-08T21:06:57.552Z,99.90
2018-09-08T21:09:25.719Z,99.90
2018-09-08T21:11:53.864Z,99.90
2018-09-08T21:14:22.045Z,99.90
2018-09-08T21:16:50.233Z,99.90
2018-09-08T21:19:18.407Z,99.90
2018-09-08T21:21:46.659Z,99.90
2018-09-08T21:24:14.822Z,99.90
2018-09-08T21:26:42.984Z,99.90
2018-09-08T21:29:11.193Z,99.90
2018-09-08T21:31:39.364Z,99.90
2018-09-08T21:34:07.567Z,99.90
2018-09-08T21:36:35.776Z,99.90
2018-09-08T21:39:04.757Z,99.90
2018-09-08T21:41:38.665Z,99.90
2018-09-08T21:44:06.883Z,99.90
2018-09-08T21:46:35.044Z,99.90
2018-09-08T21:49:03.262Z,99.90
2018-09-08T21:51:31.463Z,99.90
2018-09-08T21:53:59.639Z,99.90
2018-09-08T21:56:27.824Z,99.90
2018-09-08T21:58:56.092Z,99.90
2018-09-08T22:01:26.200Z,99.90
2018-09-08T22:03:54.961Z,99.90
2018-09-08T22:06:23.828Z,99.90
2018-09-08T22:08:52.105Z,99.90
2018-09-08T22:11:20.274Z,99.90
2018-09-08T22:13:48.462Z,99.90
2018-09-08T22:16:16.822Z,99.90
2018-09-08T22:18:45.358Z,99.90
2018-09-08T22:21:13.543Z,99.90
2018-09-08T22:23:41.784Z,99.90
2018-09-08T22:26:10.025Z,99.90
2018-09-08T22:28:38.288Z,99.90
2018-09-08T22:31:06.528Z,99.90
2018-09-08T22:33:34.818Z,99.90
2018-09-08T22:36:03.030Z,99.90
2018-09-08T22:38:31.260Z,99.90
2018-09-08T22:40:59.545Z,99.90
2018-09-08T22:43:27.820Z,99.90
2018-09-08T22:45:55.988Z,99.90
2018-09-08T22:48:24.264Z,99.90
2018-09-08T22:50:52.527Z,99.90
2018-09-08T22:53:20.704Z,99.90
2018-09-08T22:55:48.923Z,99.90
2018-09-08T22:58:17.294Z,99.90
2018-09-08T23:00:45.475Z,99.90
2018-09-08T23:03:13.648Z,99.90
2018-09-08T23:05:41.882Z,99.90
2018-09-08T23:08:10.063Z,99.90
2018-09-08T23:10:38.324Z,99.90
2018-09-08T23:13:06.508Z,99.90
2018-09-08T23:15:34.776Z,99.90
2018-09-08T23:18:02.962Z,99.90
2018-09-08T23:20:31.128Z,99.90
2018-09-08T23:22:59.300Z,99.90
2018-09-08T23:25:27.480Z,99.90
2018-09-08T23:27:55.658Z,99.90
2018-09-08T23:30:23.843Z,99.90
2018-09-08T23:32:52.044Z,99.90
2018-09-08T23:35:20.246Z,99.90
2018-09-08T23:37:48.369Z,99.90
2018-09-08T23:40:16.556Z,99.90
2018-09-08T23:42:44.812Z,99.90
2018-09-08T23:45:12.998Z,99.90
2018-09-08T23:47:41.170Z,99.90
2018-09-08T23:50:09.323Z,99.90
2018-09-08T23:52:37.620Z,99.90
2018-09-08T23:55:05.748Z,99.90
2018-09-08T23:57:33.870Z,99.90
